Tropical Cyclones
[Index]
Main Index Home Page Stock Weather Photos Extreme Storms Discussion Storm News and Storm Chasing Reports Tropical Cyclones / Hurricanes / Typhoons Weather Data and Links Wild Fires / Bushfires Weather Observation Techniques Weather Picture Catalogue Tornado Pictures and Reports Stock Video Footage and DVDs for sale
Season 1999-2000 Tropical Cyclone ASTRIDE Track Map
Season 1999-2000 Summaries (Operational Data): [AU] [SIO] [SPAC] [SH]
<<- Previous TC | 1999-2000 Season | Next TC ->>

click for intensity scale information  Lat/long Grid: Show Hide

 Date Labels: Show Hide

Operational Tropical Cyclone Data : JTWC Advisories

Name: ASTRIDE
Number: 0003

24 Dec 1999 02:00 UTC to 03 Jan 2000 06:00 UTC

    date/time    lat    long     hPa   cat  kts
1999-12-24 02    9.5    75.2    1004                     
1999-12-24 12   12.0    73.2    1002         25          
1999-12-24 18   13.0    71.6    1002         25          
1999-12-25 00   12.9    70.6    1000         25          
1999-12-25 06   12.1    69.9    1000         25          
1999-12-25 12   12.3    68.8    1000         25          
1999-12-25 18   12.4    68.0     997         30          
1999-12-26 00   12.6    66.8     992    1    40          
1999-12-26 06   12.6    65.8     990    1    45          
1999-12-26 12   13.0    64.7     990    1    45          
1999-12-26 18   14.6    64.4     987    1    45          
1999-12-27 00   14.6    63.4     985    2    50          
1999-12-27 06   14.3    62.1     985    2    50          
1999-12-27 12   14.6    61.5     985    2    50          
1999-12-27 18   14.7    61.3     988    1    45          
1999-12-28 00   14.3    59.5     992    1    40          
1999-12-28 06   14.8    58.2     992    1    40          
1999-12-28 12   15.2    57.7     992    1    40          
1999-12-28 18   15.4    57.2     992    1    40          
1999-12-29 00   15.6    56.7     992    1    40          
1999-12-29 06   15.6    56.4     992    1    40          
1999-12-29 12   15.9    55.9     992    1    40          
1999-12-29 18   15.8    55.3     992    1    40          
1999-12-30 00   16.0    55.2     994    1    40          
1999-12-30 06   15.3    54.2     985    2    50          
1999-12-30 12   14.8    53.2     985    2    50          
1999-12-30 18   14.8    52.0     988    1    45          
1999-12-31 00   14.7    51.7     988    1    45          
1999-12-31 06   12.7    51.2     995    1    40          
1999-12-31 12   12.8    50.6     995    1    40          
1999-12-31 18   12.6    49.9     995    1    35          
2000-01-01 00   12.4    49.0     997         30          
2000-01-01 06   12.4    48.6     997         30          
2000-01-01 12   12.7    46.6     997         30          
2000-01-01 18   12.4    46.5     998         30          
2000-01-02 00   12.6    45.9    1000         25          
2000-01-02 06   13.1    45.0    1000         25          
2000-01-02 12   13.6    43.8     997         30          
2000-01-02 18   13.7    42.3     997         30          
2000-01-03 00   13.6    40.9     997         30          
2000-01-03 06   13.5    40.2    1001         25          
Winds are 10-min average.

Tropical cyclone tracks developed by Michael Bath using operational warnings and advisories and Google Maps.


[Australian Severe Weather index] [Copyright Notice] [Email Contacts] [Search This Site] [Privacy Policy]
Document: tropical_cyclone_astride.htm Updated: 28 May 2013